Agana Heights, GU

5:05 PM ChST on August 30, 2014 (GMT +1000)
Maite | Change Station
CLOSE
Current Station
Personal Weather Station
Location: Maite, GU
Elevation: 140 ft
Nearby Weather Stations

Elev 140 ft 13.48 °N, 144.76 °E | Updated 10 seconds ago

Scattered Clouds
Scattered Clouds
84.0 °F
Feels Like 94 °F
N
6.0
Wind Variable Wind from North
Gusts 11.0 mph

Today
High -- | Low -- °F
--% Chance of Precip.
Yesterday
High -- | Low -- °F
Precip. -- in
6:09 AM 6:33 PM
Waxing Crescent, 19% visible
Pressure 29.71 in
Visibility 10.0 miles
Clouds Few 2500 ft
Scattered Clouds 12000 ft
Heat Index 94 °F
Dew Point 77 °F
Humidity 80%
Rainfall 1.43 in
Snow Depth Not available.
UV 1.2 out of 12
Pollen Not available.
Air Quality Not available.
Flu Activity Not available.
METAR PGUM 300654Z 06006KT 10SM FEW025 SCT120 29/24 A2974 RMK AO2 SLP061 T02940239

More Conditions Fewer Conditions

Pressure 29.71 in
Visibility 10.0 miles
Clouds Few 2500 ft
Scattered Clouds 12000 ft
Heat Index 94 °F
Dew Point 77 °F
Humidity 80%
Rainfall 1.43 in
Snow Depth Not available.
UV 1.2 out of 12
Pollen Not available.
Air Quality Not available.
Flu Activity Not available.
METAR PGUM 300654Z 06006KT 10SM FEW025 SCT120 29/24 A2974 RMK AO2 SLP061 T02940239

More Conditions Fewer Conditions

10-Day Weather Forecast

Almanac

Astronomy

Aug. 30, 2014 Rise Set
Actual Time 6:09 AM ChST 6:33 PM ChST
Civil Twilight 5:47 AM ChST 6:55 PM ChST
Nautical Twilight 5:22 AM ChST 7:20 PM ChST
Astronomical Twilight 4:57 AM ChST 7:45 PM ChST
Moon 9:32 AM ChST 9:34 PM ChST
Length of Visible Light 13h 07m
Length of Day
12h 24m
Tomorrow will be 0m 43s shorter.
Waxing Crescent, 19% of the Moon is Illuminated
Today
Waxing Crescent
Sep 2
First Quarter
Sep 8
Full
Sep 15
Last Quarter
Sep 24
New

Community

WunderPhotos

Upload Photos

1,748,462 photos uploaded!

Nearby

Snow Depth

Station Depth Elevation
No new snow has been reported.

Earthquake Activity

City Distance Mag. Time & Date
No recent earthquake activity has been reported nearby.
Minimum magnitude displayed is 2.5.

Coastal Water Temperatures

Place Temperature
No Stations Reporting

Nearby Weather Stations